Terminal Aerodrome Forecast
Issued by NWS Amarillo, TX

Home | Current Version | Previous Version | Text Only | Print | Product List | Glossary On
Versions: 1 2 3 4 5 6 7 8 9 10 11 12 13 14 15
000
FTUS44 KAMA 230500 RRA
TAFDHT
TAF
KDHT 230542Z 2306/2406 18007KT 4SM BR FEW008
     FM231000 VRB03KT 2SM BR FEW150
     FM231700 19010KT P6SM SCT035=

USA.gov is the U.S. government's official web portal to all federal, state and local government web resources and services.